sensor_id;sensor_type;location;lat;lon;timestamp;P1;durP1;ratioP1;P2;durP2;ratioP2
18142;SDS011;9197;50.930;3.140;2022-09-20T00:01:05;5.83;;;2.90;;
18142;SDS011;9197;50.930;3.140;2022-09-20T00:03:33;8.00;;;3.43;;
18142;SDS011;9197;50.930;3.140;2022-09-20T00:06:03;4.93;;;2.93;;
18142;SDS011;9197;50.930;3.140;2022-09-20T00:08:31;5.17;;;3.13;;
18142;SDS011;9197;50.930;3.140;2022-09-20T00:10:59;5.50;;;3.67;;
18142;SDS011;9197;50.930;3.140;2022-09-20T00:13:28;6.07;;;3.43;;
18142;SDS011;9197;50.930;3.140;2022-09-20T00:15:56;4.27;;;2.80;;
18142;SDS011;9197;50.930;3.140;2022-09-20T00:18:23;6.53;;;3.07;;
18142;SDS011;9197;50.930;3.140;2022-09-20T00:20:51;7.57;;;2.90;;
18142;SDS011;9197;50.930;3.140;2022-09-20T00:23:20;6.83;;;2.80;;
18142;SDS011;9197;50.930;3.140;2022-09-20T00:25:53;5.73;;;3.40;;
18142;SDS011;9197;50.930;3.140;2022-09-20T00:28:21;5.03;;;3.57;;
18142;SDS011;9197;50.930;3.140;2022-09-20T00:30:48;6.77;;;3.27;;
18142;SDS011;9197;50.930;3.140;2022-09-20T00:33:16;7.33;;;3.10;;
18142;SDS011;9197;50.930;3.140;2022-09-20T00:35:44;7.10;;;2.87;;
18142;SDS011;9197;50.930;3.140;2022-09-20T00:38:11;6.57;;;3.17;;
18142;SDS011;9197;50.930;3.140;2022-09-20T00:40:40;4.73;;;3.40;;
18142;SDS011;9197;50.930;3.140;2022-09-20T00:43:09;12.03;;;5.13;;
18142;SDS011;9197;50.930;3.140;2022-09-20T00:45:39;7.80;;;3.40;;
18142;SDS011;9197;50.930;3.140;2022-09-20T00:48:09;7.40;;;3.03;;
18142;SDS011;9197;50.930;3.140;2022-09-20T00:50:39;8.97;;;3.00;;
18142;SDS011;9197;50.930;3.140;2022-09-20T00:53:08;5.77;;;3.07;;
18142;SDS011;9197;50.930;3.140;2022-09-20T00:55:37;5.97;;;3.40;;
18142;SDS011;9197;50.930;3.140;2022-09-20T00:58:07;7.00;;;3.90;;
18142;SDS011;9197;50.930;3.140;2022-09-20T01:00:35;8.17;;;4.33;;
18142;SDS011;9197;50.930;3.140;2022-09-20T01:03:03;6.90;;;2.93;;
18142;SDS011;9197;50.930;3.140;2022-09-20T01:05:33;6.90;;;3.73;;
18142;SDS011;9197;50.930;3.140;2022-09-20T01:08:00;8.07;;;3.50;;
18142;SDS011;9197;50.930;3.140;2022-09-20T01:10:28;5.53;;;3.37;;
18142;SDS011;9197;50.930;3.140;2022-09-20T01:12:57;7.50;;;3.50;;
18142;SDS011;9197;50.930;3.140;2022-09-20T01:15:26;7.80;;;4.27;;
18142;SDS011;9197;50.930;3.140;2022-09-20T01:17:54;4.33;;;3.20;;
18142;SDS011;9197;50.930;3.140;2022-09-20T01:20:24;5.00;;;3.60;;
18142;SDS011;9197;50.930;3.140;2022-09-20T01:23:04;8.07;;;3.47;;
18142;SDS011;9197;50.930;3.140;2022-09-20T01:26:00;6.60;;;3.40;;
18142;SDS011;9197;50.930;3.140;2022-09-20T01:28:32;5.80;;;3.57;;
18142;SDS011;9197;50.930;3.140;2022-09-20T01:31:02;7.67;;;3.90;;
18142;SDS011;9197;50.930;3.140;2022-09-20T01:33:34;7.40;;;3.10;;
18142;SDS011;9197;50.930;3.140;2022-09-20T01:36:03;4.53;;;3.00;;
18142;SDS011;9197;50.930;3.140;2022-09-20T01:38:33;4.23;;;3.37;;
18142;SDS011;9197;50.930;3.140;2022-09-20T01:41:05;12.33;;;3.77;;
18142;SDS011;9197;50.930;3.140;2022-09-20T01:43:39;6.77;;;3.90;;
18142;SDS011;9197;50.930;3.140;2022-09-20T01:46:10;3.63;;;3.07;;
18142;SDS011;9197;50.930;3.140;2022-09-20T01:48:41;6.67;;;3.70;;
18142;SDS011;9197;50.930;3.140;2022-09-20T01:51:20;7.73;;;3.53;;
18142;SDS011;9197;50.930;3.140;2022-09-20T01:56:41;8.60;;;4.60;;
18142;SDS011;9197;50.930;3.140;2022-09-20T01:59:26;6.57;;;3.73;;
18142;SDS011;9197;50.930;3.140;2022-09-20T02:02:05;6.30;;;3.50;;
18142;SDS011;9197;50.930;3.140;2022-09-20T02:07:20;4.87;;;3.40;;
18142;SDS011;9197;50.930;3.140;2022-09-20T02:10:02;4.50;;;3.07;;
18142;SDS011;9197;50.930;3.140;2022-09-20T02:12:38;5.43;;;3.43;;
18142;SDS011;9197;50.930;3.140;2022-09-20T02:15:14;7.57;;;4.10;;
18142;SDS011;9197;50.930;3.140;2022-09-20T02:17:46;8.37;;;3.23;;
18142;SDS011;9197;50.930;3.140;2022-09-20T02:20:17;4.63;;;3.90;;
18142;SDS011;9197;50.930;3.140;2022-09-20T02:22:56;8.67;;;4.13;;
18142;SDS011;9197;50.930;3.140;2022-09-20T02:25:39;4.77;;;3.23;;
18142;SDS011;9197;50.930;3.140;2022-09-20T02:28:16;4.20;;;3.40;;
18142;SDS011;9197;50.930;3.140;2022-09-20T02:30:51;9.50;;;3.90;;
18142;SDS011;9197;50.930;3.140;2022-09-20T02:36:19;5.47;;;3.53;;
18142;SDS011;9197;50.930;3.140;2022-09-20T02:38:52;5.97;;;4.00;;
18142;SDS011;9197;50.930;3.140;2022-09-20T02:44:33;4.23;;;3.77;;
18142;SDS011;9197;50.930;3.140;2022-09-20T02:47:08;5.67;;;4.77;;
18142;SDS011;9197;50.930;3.140;2022-09-20T02:49:41;7.50;;;4.20;;
18142;SDS011;9197;50.930;3.140;2022-09-20T02:52:14;7.63;;;3.80;;
18142;SDS011;9197;50.930;3.140;2022-09-20T02:54:45;6.37;;;4.27;;
18142;SDS011;9197;50.930;3.140;2022-09-20T02:57:16;5.17;;;4.60;;
18142;SDS011;9197;50.930;3.140;2022-09-20T02:59:45;8.53;;;4.37;;
18142;SDS011;9197;50.930;3.140;2022-09-20T03:02:21;10.17;;;5.27;;
18142;SDS011;9197;50.930;3.140;2022-09-20T03:04:52;13.17;;;4.50;;
18142;SDS011;9197;50.930;3.140;2022-09-20T03:07:25;7.60;;;4.33;;
18142;SDS011;9197;50.930;3.140;2022-09-20T03:10:00;7.07;;;3.70;;
18142;SDS011;9197;50.930;3.140;2022-09-20T03:12:33;6.57;;;4.80;;
18142;SDS011;9197;50.930;3.140;2022-09-20T03:15:08;6.50;;;4.23;;
18142;SDS011;9197;50.930;3.140;2022-09-20T03:17:44;7.00;;;3.60;;
18142;SDS011;9197;50.930;3.140;2022-09-20T03:20:18;7.73;;;4.13;;
18142;SDS011;9197;50.930;3.140;2022-09-20T03:22:52;5.07;;;4.50;;
18142;SDS011;9197;50.930;3.140;2022-09-20T03:28:07;5.67;;;3.97;;
18142;SDS011;9197;50.930;3.140;2022-09-20T03:30:40;7.47;;;4.40;;
18142;SDS011;9197;50.930;3.140;2022-09-20T03:33:15;7.50;;;5.40;;
18142;SDS011;9197;50.930;3.140;2022-09-20T03:35:48;6.97;;;4.37;;
18142;SDS011;9197;50.930;3.140;2022-09-20T03:38:24;7.17;;;4.50;;
18142;SDS011;9197;50.930;3.140;2022-09-20T03:40:58;6.50;;;4.17;;
18142;SDS011;9197;50.930;3.140;2022-09-20T03:43:31;8.03;;;4.20;;
18142;SDS011;9197;50.930;3.140;2022-09-20T03:46:03;11.60;;;4.97;;
18142;SDS011;9197;50.930;3.140;2022-09-20T03:48:41;5.47;;;3.90;;
18142;SDS011;9197;50.930;3.140;2022-09-20T03:51:20;4.93;;;4.43;;
18142;SDS011;9197;50.930;3.140;2022-09-20T03:54:01;6.73;;;4.77;;
18142;SDS011;9197;50.930;3.140;2022-09-20T03:56:35;8.83;;;5.37;;
18142;SDS011;9197;50.930;3.140;2022-09-20T03:59:11;8.90;;;4.30;;
18142;SDS011;9197;50.930;3.140;2022-09-20T04:01:55;7.73;;;4.53;;
18142;SDS011;9197;50.930;3.140;2022-09-20T04:04:29;6.63;;;4.90;;
18142;SDS011;9197;50.930;3.140;2022-09-20T04:07:02;7.03;;;5.00;;
18142;SDS011;9197;50.930;3.140;2022-09-20T04:09:42;5.30;;;4.73;;
18142;SDS011;9197;50.930;3.140;2022-09-20T04:12:14;10.67;;;5.57;;
18142;SDS011;9197;50.930;3.140;2022-09-20T04:14:48;7.30;;;5.07;;
18142;SDS011;9197;50.930;3.140;2022-09-20T04:17:21;5.37;;;4.80;;
18142;SDS011;9197;50.930;3.140;2022-09-20T04:19:55;7.60;;;5.57;;
18142;SDS011;9197;50.930;3.140;2022-09-20T04:22:24;7.20;;;5.63;;
18142;SDS011;9197;50.930;3.140;2022-09-20T04:24:55;7.47;;;5.27;;
18142;SDS011;9197;50.930;3.140;2022-09-20T04:27:27;5.50;;;4.90;;
18142;SDS011;9197;50.930;3.140;2022-09-20T04:29:56;7.83;;;5.03;;
18142;SDS011;9197;50.930;3.140;2022-09-20T04:32:27;9.43;;;6.03;;
18142;SDS011;9197;50.930;3.140;2022-09-20T04:35:05;8.17;;;5.70;;
18142;SDS011;9197;50.930;3.140;2022-09-20T04:37:55;6.93;;;6.17;;
18142;SDS011;9197;50.930;3.140;2022-09-20T04:40:25;6.70;;;6.00;;
18142;SDS011;9197;50.930;3.140;2022-09-20T04:43:15;9.00;;;5.77;;
18142;SDS011;9197;50.930;3.140;2022-09-20T04:48:50;9.43;;;5.50;;
18142;SDS011;9197;50.930;3.140;2022-09-20T04:57:23;7.03;;;5.80;;
18142;SDS011;9197;50.930;3.140;2022-09-20T04:59:56;11.10;;;6.57;;
18142;SDS011;9197;50.930;3.140;2022-09-20T05:05:41;8.50;;;6.80;;
18142;SDS011;9197;50.930;3.140;2022-09-20T05:14:18;7.90;;;6.23;;
18142;SDS011;9197;50.930;3.140;2022-09-20T05:16:56;8.03;;;6.00;;
18142;SDS011;9197;50.930;3.140;2022-09-20T05:19:28;7.67;;;6.87;;
18142;SDS011;9197;50.930;3.140;2022-09-20T05:22:08;10.30;;;6.47;;
18142;SDS011;9197;50.930;3.140;2022-09-20T05:24:48;8.30;;;6.60;;
18142;SDS011;9197;50.930;3.140;2022-09-20T05:27:28;9.73;;;6.57;;
18142;SDS011;9197;50.930;3.140;2022-09-20T05:30:00;10.03;;;6.77;;
18142;SDS011;9197;50.930;3.140;2022-09-20T05:32:32;10.90;;;7.60;;
18142;SDS011;9197;50.930;3.140;2022-09-20T05:35:03;15.07;;;7.27;;
18142;SDS011;9197;50.930;3.140;2022-09-20T05:37:36;10.33;;;7.33;;
18142;SDS011;9197;50.930;3.140;2022-09-20T05:40:12;7.87;;;7.13;;
18142;SDS011;9197;50.930;3.140;2022-09-20T05:42:43;10.67;;;7.73;;
18142;SDS011;9197;50.930;3.140;2022-09-20T05:45:21;8.23;;;7.40;;
18142;SDS011;9197;50.930;3.140;2022-09-20T05:47:54;9.40;;;7.40;;
18142;SDS011;9197;50.930;3.140;2022-09-20T05:50:34;8.93;;;7.13;;
18142;SDS011;9197;50.930;3.140;2022-09-20T05:53:09;11.17;;;7.00;;
18142;SDS011;9197;50.930;3.140;2022-09-20T05:55:44;10.63;;;7.07;;
18142;SDS011;9197;50.930;3.140;2022-09-20T05:58:18;8.40;;;6.40;;
18142;SDS011;9197;50.930;3.140;2022-09-20T06:00:51;9.47;;;7.03;;
18142;SDS011;9197;50.930;3.140;2022-09-20T06:03:21;6.73;;;6.07;;
18142;SDS011;9197;50.930;3.140;2022-09-20T06:05:54;10.90;;;6.10;;
18142;SDS011;9197;50.930;3.140;2022-09-20T06:08:30;10.80;;;6.33;;
18142;SDS011;9197;50.930;3.140;2022-09-20T06:11:05;8.03;;;6.00;;
18142;SDS011;9197;50.930;3.140;2022-09-20T06:13:40;8.13;;;5.77;;
18142;SDS011;9197;50.930;3.140;2022-09-20T06:16:13;10.50;;;5.80;;
18142;SDS011;9197;50.930;3.140;2022-09-20T06:18:46;5.97;;;5.37;;
18142;SDS011;9197;50.930;3.140;2022-09-20T06:21:20;6.40;;;5.60;;
18142;SDS011;9197;50.930;3.140;2022-09-20T06:23:49;6.77;;;5.37;;
18142;SDS011;9197;50.930;3.140;2022-09-20T06:26:18;7.50;;;5.17;;
18142;SDS011;9197;50.930;3.140;2022-09-20T06:28:48;13.20;;;5.63;;
18142;SDS011;9197;50.930;3.140;2022-09-20T06:31:18;7.73;;;5.00;;
18142;SDS011;9197;50.930;3.140;2022-09-20T06:33:48;9.80;;;5.17;;
18142;SDS011;9197;50.930;3.140;2022-09-20T06:36:19;10.33;;;5.13;;
18142;SDS011;9197;50.930;3.140;2022-09-20T06:39:07;8.50;;;5.23;;
18142;SDS011;9197;50.930;3.140;2022-09-20T06:41:56;8.50;;;4.77;;
18142;SDS011;9197;50.930;3.140;2022-09-20T06:44:23;7.27;;;4.90;;
18142;SDS011;9197;50.930;3.140;2022-09-20T06:46:52;11.00;;;5.40;;
18142;SDS011;9197;50.930;3.140;2022-09-20T06:49:19;8.30;;;4.37;;
18142;SDS011;9197;50.930;3.140;2022-09-20T06:51:48;9.20;;;4.23;;
18142;SDS011;9197;50.930;3.140;2022-09-20T06:54:17;7.17;;;3.67;;
18142;SDS011;9197;50.930;3.140;2022-09-20T06:56:44;9.30;;;3.70;;
18142;SDS011;9197;50.930;3.140;2022-09-20T06:59:12;7.40;;;3.67;;
18142;SDS011;9197;50.930;3.140;2022-09-20T07:01:40;8.33;;;2.63;;
18142;SDS011;9197;50.930;3.140;2022-09-20T07:04:09;7.20;;;2.43;;
18142;SDS011;9197;50.930;3.140;2022-09-20T07:06:36;5.43;;;2.50;;
18142;SDS011;9197;50.930;3.140;2022-09-20T07:09:04;2.38;;;1.92;;
18142;SDS011;9197;50.930;3.140;2022-09-20T07:11:32;5.88;;;2.17;;
18142;SDS011;9197;50.930;3.140;2022-09-20T07:14:00;3.78;;;2.30;;
18142;SDS011;9197;50.930;3.140;2022-09-20T07:16:27;4.47;;;2.38;;
18142;SDS011;9197;50.930;3.140;2022-09-20T07:18:55;4.15;;;2.50;;
18142;SDS011;9197;50.930;3.140;2022-09-20T07:21:23;4.47;;;2.80;;
18142;SDS011;9197;50.930;3.140;2022-09-20T07:23:51;4.55;;;1.98;;
18142;SDS011;9197;50.930;3.140;2022-09-20T07:26:19;3.33;;;2.00;;
18142;SDS011;9197;50.930;3.140;2022-09-20T07:28:47;5.30;;;2.25;;
18142;SDS011;9197;50.930;3.140;2022-09-20T07:31:15;5.90;;;1.77;;
18142;SDS011;9197;50.930;3.140;2022-09-20T07:33:42;3.53;;;2.00;;
18142;SDS011;9197;50.930;3.140;2022-09-20T07:36:10;3.45;;;1.83;;
18142;SDS011;9197;50.930;3.140;2022-09-20T07:38:39;2.47;;;1.65;;
18142;SDS011;9197;50.930;3.140;2022-09-20T07:41:07;2.45;;;1.83;;
18142;SDS011;9197;50.930;3.140;2022-09-20T07:43:35;4.22;;;1.98;;
18142;SDS011;9197;50.930;3.140;2022-09-20T07:46:02;4.88;;;1.98;;
18142;SDS011;9197;50.930;3.140;2022-09-20T07:48:31;3.40;;;1.40;;
18142;SDS011;9197;50.930;3.140;2022-09-20T07:51:00;3.30;;;1.35;;
18142;SDS011;9197;50.930;3.140;2022-09-20T07:53:28;3.20;;;1.85;;
18142;SDS011;9197;50.930;3.140;2022-09-20T07:55:57;3.85;;;2.22;;
18142;SDS011;9197;50.930;3.140;2022-09-20T07:58:25;4.47;;;1.70;;
18142;SDS011;9197;50.930;3.140;2022-09-20T08:00:53;3.22;;;1.92;;
18142;SDS011;9197;50.930;3.140;2022-09-20T08:03:20;5.15;;;1.92;;
18142;SDS011;9197;50.930;3.140;2022-09-20T08:05:48;2.75;;;1.65;;
18142;SDS011;9197;50.930;3.140;2022-09-20T08:08:15;5.13;;;1.83;;
18142;SDS011;9197;50.930;3.140;2022-09-20T08:10:43;3.92;;;1.63;;
18142;SDS011;9197;50.930;3.140;2022-09-20T08:13:12;4.65;;;2.03;;
18142;SDS011;9197;50.930;3.140;2022-09-20T08:15:39;3.90;;;1.63;;
18142;SDS011;9197;50.930;3.140;2022-09-20T08:18:07;3.83;;;1.40;;
18142;SDS011;9197;50.930;3.140;2022-09-20T08:20:36;3.47;;;1.40;;
18142;SDS011;9197;50.930;3.140;2022-09-20T08:23:03;3.17;;;1.42;;
18142;SDS011;9197;50.930;3.140;2022-09-20T08:25:31;3.60;;;1.85;;
18142;SDS011;9197;50.930;3.140;2022-09-20T08:27:59;2.72;;;1.98;;
18142;SDS011;9197;50.930;3.140;2022-09-20T08:30:27;2.22;;;1.35;;
18142;SDS011;9197;50.930;3.140;2022-09-20T08:32:55;2.65;;;1.00;;
18142;SDS011;9197;50.930;3.140;2022-09-20T08:35:23;2.17;;;1.17;;
18142;SDS011;9197;50.930;3.140;2022-09-20T08:37:53;3.58;;;0.95;;
18142;SDS011;9197;50.930;3.140;2022-09-20T08:40:21;4.10;;;1.40;;
18142;SDS011;9197;50.930;3.140;2022-09-20T08:42:50;2.45;;;1.10;;
18142;SDS011;9197;50.930;3.140;2022-09-20T08:45:18;3.47;;;1.02;;
18142;SDS011;9197;50.930;3.140;2022-09-20T08:47:47;2.58;;;1.02;;
18142;SDS011;9197;50.930;3.140;2022-09-20T08:50:15;3.75;;;1.48;;
18142;SDS011;9197;50.930;3.140;2022-09-20T08:52:44;2.30;;;1.30;;
18142;SDS011;9197;50.930;3.140;2022-09-20T08:55:14;2.47;;;1.58;;
18142;SDS011;9197;50.930;3.140;2022-09-20T08:57:41;4.80;;;1.17;;
18142;SDS011;9197;50.930;3.140;2022-09-20T09:00:13;2.60;;;1.17;;
18142;SDS011;9197;50.930;3.140;2022-09-20T09:02:42;6.45;;;1.73;;
18142;SDS011;9197;50.930;3.140;2022-09-20T09:05:26;2.67;;;1.08;;
18142;SDS011;9197;50.930;3.140;2022-09-20T09:07:55;2.53;;;0.88;;
18142;SDS011;9197;50.930;3.140;2022-09-20T09:10:25;4.28;;;1.13;;
18142;SDS011;9197;50.930;3.140;2022-09-20T09:12:52;3.50;;;1.00;;
18142;SDS011;9197;50.930;3.140;2022-09-20T09:15:22;4.95;;;1.33;;
18142;SDS011;9197;50.930;3.140;2022-09-20T09:17:50;2.80;;;0.93;;
18142;SDS011;9197;50.930;3.140;2022-09-20T09:20:22;1.98;;;0.80;;
18142;SDS011;9197;50.930;3.140;2022-09-20T09:22:57;1.45;;;0.77;;
18142;SDS011;9197;50.930;3.140;2022-09-20T09:25:25;4.50;;;1.08;;
18142;SDS011;9197;50.930;3.140;2022-09-20T09:27:58;1.40;;;0.90;;
18142;SDS011;9197;50.930;3.140;2022-09-20T09:30:27;3.30;;;0.98;;
18142;SDS011;9197;50.930;3.140;2022-09-20T09:33:14;2.55;;;1.25;;
18142;SDS011;9197;50.930;3.140;2022-09-20T09:35:44;2.13;;;1.00;;
18142;SDS011;9197;50.930;3.140;2022-09-20T09:38:16;1.88;;;0.90;;
18142;SDS011;9197;50.930;3.140;2022-09-20T09:40:48;2.22;;;0.80;;
18142;SDS011;9197;50.930;3.140;2022-09-20T09:43:18;2.25;;;1.00;;
18142;SDS011;9197;50.930;3.140;2022-09-20T09:45:47;2.08;;;0.98;;
18142;SDS011;9197;50.930;3.140;2022-09-20T09:48:18;3.47;;;1.02;;
18142;SDS011;9197;50.930;3.140;2022-09-20T09:50:47;2.85;;;0.90;;
18142;SDS011;9197;50.930;3.140;2022-09-20T09:53:15;2.15;;;0.80;;
18142;SDS011;9197;50.930;3.140;2022-09-20T09:56:02;4.07;;;1.20;;
18142;SDS011;9197;50.930;3.140;2022-09-20T09:58:40;2.40;;;1.08;;
18142;SDS011;9197;50.930;3.140;2022-09-20T10:01:11;4.90;;;1.27;;
18142;SDS011;9197;50.930;3.140;2022-09-20T10:03:43;5.18;;;1.27;;
18142;SDS011;9197;50.930;3.140;2022-09-20T10:06:16;6.43;;;1.15;;
18142;SDS011;9197;50.930;3.140;2022-09-20T10:08:49;3.88;;;0.77;;
18142;SDS011;9197;50.930;3.140;2022-09-20T10:11:21;3.78;;;0.80;;
18142;SDS011;9197;50.930;3.140;2022-09-20T10:13:54;2.03;;;0.75;;
18142;SDS011;9197;50.930;3.140;2022-09-20T10:16:28;4.18;;;1.15;;
18142;SDS011;9197;50.930;3.140;2022-09-20T10:19:00;3.08;;;1.25;;
18142;SDS011;9197;50.930;3.140;2022-09-20T10:21:34;4.53;;;0.88;;
18142;SDS011;9197;50.930;3.140;2022-09-20T10:24:07;1.58;;;0.80;;
18142;SDS011;9197;50.930;3.140;2022-09-20T10:26:49;1.77;;;0.98;;
18142;SDS011;9197;50.930;3.140;2022-09-20T10:29:22;3.33;;;1.10;;
18142;SDS011;9197;50.930;3.140;2022-09-20T10:31:54;2.90;;;1.10;;
18142;SDS011;9197;50.930;3.140;2022-09-20T10:34:49;4.00;;;1.10;;
18142;SDS011;9197;50.930;3.140;2022-09-20T10:37:22;1.63;;;0.98;;
18142;SDS011;9197;50.930;3.140;2022-09-20T10:39:57;5.25;;;1.05;;
18142;SDS011;9197;50.930;3.140;2022-09-20T10:42:31;2.70;;;0.88;;
18142;SDS011;9197;50.930;3.140;2022-09-20T10:45:22;4.18;;;1.45;;
18142;SDS011;9197;50.930;3.140;2022-09-20T10:47:52;4.95;;;1.20;;
18142;SDS011;9197;50.930;3.140;2022-09-20T10:50:24;3.90;;;1.05;;
18142;SDS011;9197;50.930;3.140;2022-09-20T10:52:59;2.88;;;1.05;;
18142;SDS011;9197;50.930;3.140;2022-09-20T10:55:34;2.65;;;0.73;;
18142;SDS011;9197;50.930;3.140;2022-09-20T11:00:52;2.95;;;0.80;;
18142;SDS011;9197;50.930;3.140;2022-09-20T11:03:26;1.83;;;0.77;;
18142;SDS011;9197;50.930;3.140;2022-09-20T11:06:04;4.40;;;1.10;;
18142;SDS011;9197;50.930;3.140;2022-09-20T11:08:36;4.45;;;0.95;;
18142;SDS011;9197;50.930;3.140;2022-09-20T11:11:04;6.32;;;1.40;;
18142;SDS011;9197;50.930;3.140;2022-09-20T11:13:35;8.60;;;1.13;;
18142;SDS011;9197;50.930;3.140;2022-09-20T11:16:07;7.22;;;1.25;;
18142;SDS011;9197;50.930;3.140;2022-09-20T11:18:38;3.35;;;0.95;;
18142;SDS011;9197;50.930;3.140;2022-09-20T11:21:07;3.60;;;0.80;;
18142;SDS011;9197;50.930;3.140;2022-09-20T11:23:42;2.85;;;1.23;;
18142;SDS011;9197;50.930;3.140;2022-09-20T11:26:12;4.35;;;1.50;;
18142;SDS011;9197;50.930;3.140;2022-09-20T11:28:43;5.07;;;0.98;;
18142;SDS011;9197;50.930;3.140;2022-09-20T11:31:13;2.80;;;1.05;;
18142;SDS011;9197;50.930;3.140;2022-09-20T11:33:45;6.70;;;1.20;;
18142;SDS011;9197;50.930;3.140;2022-09-20T11:36:18;3.90;;;1.20;;
18142;SDS011;9197;50.930;3.140;2022-09-20T11:38:50;4.78;;;1.02;;
18142;SDS011;9197;50.930;3.140;2022-09-20T11:41:19;3.03;;;0.90;;
18142;SDS011;9197;50.930;3.140;2022-09-20T11:43:49;4.78;;;1.00;;
18142;SDS011;9197;50.930;3.140;2022-09-20T11:46:18;2.40;;;1.00;;
18142;SDS011;9197;50.930;3.140;2022-09-20T11:48:47;2.90;;;1.15;;
18142;SDS011;9197;50.930;3.140;2022-09-20T11:51:20;2.70;;;1.27;;
18142;SDS011;9197;50.930;3.140;2022-09-20T11:53:55;2.08;;;0.93;;
18142;SDS011;9197;50.930;3.140;2022-09-20T11:56:28;2.80;;;0.80;;
18142;SDS011;9197;50.930;3.140;2022-09-20T11:58:57;5.57;;;1.17;;
18142;SDS011;9197;50.930;3.140;2022-09-20T12:01:26;3.97;;;1.30;;
18142;SDS011;9197;50.930;3.140;2022-09-20T12:03:55;3.88;;;0.88;;
18142;SDS011;9197;50.930;3.140;2022-09-20T12:06:25;2.08;;;0.60;;
18142;SDS011;9197;50.930;3.140;2022-09-20T12:09:05;1.60;;;0.75;;
18142;SDS011;9197;50.930;3.140;2022-09-20T12:11:33;2.95;;;0.77;;
18142;SDS011;9197;50.930;3.140;2022-09-20T12:14:04;3.78;;;1.02;;
18142;SDS011;9197;50.930;3.140;2022-09-20T12:16:35;2.20;;;0.70;;
18142;SDS011;9197;50.930;3.140;2022-09-20T12:19:03;1.52;;;0.60;;
18142;SDS011;9197;50.930;3.140;2022-09-20T12:21:44;3.80;;;0.70;;
18142;SDS011;9197;50.930;3.140;2022-09-20T12:24:34;0.40;;;0.40;;
18142;SDS011;9197;50.930;3.140;2022-09-20T12:27:18;1.95;;;0.90;;
18142;SDS011;9197;50.930;3.140;2022-09-20T12:29:50;1.42;;;0.52;;
18142;SDS011;9197;50.930;3.140;2022-09-20T12:38:22;2.30;;;0.80;;
18142;SDS011;9197;50.930;3.140;2022-09-20T12:40:59;8.88;;;2.17;;
18142;SDS011;9197;50.930;3.140;2022-09-20T12:43:27;1.95;;;0.60;;
18142;SDS011;9197;50.930;3.140;2022-09-20T12:45:54;1.75;;;0.55;;
18142;SDS011;9197;50.930;3.140;2022-09-20T12:48:22;1.83;;;0.55;;
18142;SDS011;9197;50.930;3.140;2022-09-20T12:50:59;3.50;;;0.95;;
18142;SDS011;9197;50.930;3.140;2022-09-20T12:53:56;3.83;;;1.25;;
18142;SDS011;9197;50.930;3.140;2022-09-20T12:56:25;4.55;;;1.65;;
18142;SDS011;9197;50.930;3.140;2022-09-20T12:58:53;3.28;;;1.48;;
18142;SDS011;9197;50.930;3.140;2022-09-20T13:01:35;4.00;;;2.17;;
18142;SDS011;9197;50.930;3.140;2022-09-20T13:07:09;2.97;;;0.90;;
18142;SDS011;9197;50.930;3.140;2022-09-20T13:09:52;7.00;;;2.20;;
18142;SDS011;9197;50.930;3.140;2022-09-20T13:12:21;5.70;;;1.40;;
18142;SDS011;9197;50.930;3.140;2022-09-20T13:14:49;1.17;;;1.07;;
18142;SDS011;9197;50.930;3.140;2022-09-20T13:17:18;3.30;;;1.30;;
18142;SDS011;9197;50.930;3.140;2022-09-20T13:19:49;2.93;;;1.40;;
18142;SDS011;9197;50.930;3.140;2022-09-20T13:22:18;5.90;;;1.43;;
18142;SDS011;9197;50.930;3.140;2022-09-20T13:24:49;4.07;;;1.90;;
18142;SDS011;9197;50.930;3.140;2022-09-20T13:27:20;5.03;;;1.50;;
18142;SDS011;9197;50.930;3.140;2022-09-20T13:29:49;2.83;;;1.30;;
18142;SDS011;9197;50.930;3.140;2022-09-20T13:32:19;2.40;;;1.23;;
18142;SDS011;9197;50.930;3.140;2022-09-20T13:35:03;4.23;;;1.27;;
18142;SDS011;9197;50.930;3.140;2022-09-20T13:37:30;2.03;;;0.90;;
18142;SDS011;9197;50.930;3.140;2022-09-20T13:39:58;3.43;;;1.20;;
18142;SDS011;9197;50.930;3.140;2022-09-20T13:42:26;4.10;;;1.10;;
18142;SDS011;9197;50.930;3.140;2022-09-20T13:44:56;4.28;;;1.40;;
18142;SDS011;9197;50.930;3.140;2022-09-20T13:47:24;2.50;;;1.10;;
18142;SDS011;9197;50.930;3.140;2022-09-20T13:49:52;3.70;;;1.02;;
18142;SDS011;9197;50.930;3.140;2022-09-20T13:52:23;3.57;;;1.37;;
18142;SDS011;9197;50.930;3.140;2022-09-20T13:54:51;2.45;;;1.20;;
18142;SDS011;9197;50.930;3.140;2022-09-20T13:57:20;3.40;;;1.25;;
18142;SDS011;9197;50.930;3.140;2022-09-20T13:59:48;4.85;;;1.88;;
18142;SDS011;9197;50.930;3.140;2022-09-20T14:02:19;2.42;;;1.00;;
18142;SDS011;9197;50.930;3.140;2022-09-20T14:04:47;1.67;;;1.08;;
18142;SDS011;9197;50.930;3.140;2022-09-20T14:07:14;2.70;;;1.25;;
18142;SDS011;9197;50.930;3.140;2022-09-20T14:09:42;3.20;;;1.42;;
18142;SDS011;9197;50.930;3.140;2022-09-20T14:12:11;4.63;;;1.55;;
18142;SDS011;9197;50.930;3.140;2022-09-20T14:14:39;4.80;;;1.15;;
18142;SDS011;9197;50.930;3.140;2022-09-20T14:17:07;4.97;;;1.33;;
18142;SDS011;9197;50.930;3.140;2022-09-20T14:19:37;3.00;;;0.82;;
18142;SDS011;9197;50.930;3.140;2022-09-20T14:22:06;1.95;;;0.93;;
18142;SDS011;9197;50.930;3.140;2022-09-20T14:24:34;4.32;;;0.75;;
18142;SDS011;9197;50.930;3.140;2022-09-20T14:27:14;4.57;;;1.10;;
18142;SDS011;9197;50.930;3.140;2022-09-20T14:29:42;5.85;;;1.17;;
18142;SDS011;9197;50.930;3.140;2022-09-20T14:32:20;2.83;;;0.85;;
18142;SDS011;9197;50.930;3.140;2022-09-20T14:34:51;2.65;;;0.85;;
18142;SDS011;9197;50.930;3.140;2022-09-20T14:37:25;3.67;;;1.00;;
18142;SDS011;9197;50.930;3.140;2022-09-20T14:39:54;1.58;;;0.80;;
18142;SDS011;9197;50.930;3.140;2022-09-20T14:42:24;3.70;;;1.25;;
18142;SDS011;9197;50.930;3.140;2022-09-20T14:44:54;2.05;;;0.80;;
18142;SDS011;9197;50.930;3.140;2022-09-20T14:47:25;4.50;;;1.50;;
18142;SDS011;9197;50.930;3.140;2022-09-20T14:49:54;1.63;;;1.10;;
18142;SDS011;9197;50.930;3.140;2022-09-20T14:52:38;3.45;;;0.90;;
18142;SDS011;9197;50.930;3.140;2022-09-20T14:55:16;3.20;;;1.23;;
18142;SDS011;9197;50.930;3.140;2022-09-20T14:57:44;2.55;;;1.13;;
18142;SDS011;9197;50.930;3.140;2022-09-20T15:00:12;5.47;;;0.90;;
18142;SDS011;9197;50.930;3.140;2022-09-20T15:02:40;3.85;;;1.08;;
18142;SDS011;9197;50.930;3.140;2022-09-20T15:05:16;2.22;;;0.82;;
18142;SDS011;9197;50.930;3.140;2022-09-20T15:07:44;2.25;;;0.90;;
18142;SDS011;9197;50.930;3.140;2022-09-20T15:10:12;3.00;;;0.80;;
18142;SDS011;9197;50.930;3.140;2022-09-20T15:12:40;1.63;;;0.90;;
18142;SDS011;9197;50.930;3.140;2022-09-20T15:15:10;5.15;;;1.17;;
18142;SDS011;9197;50.930;3.140;2022-09-20T15:17:39;4.95;;;1.13;;
18142;SDS011;9197;50.930;3.140;2022-09-20T15:20:11;3.50;;;1.17;;
18142;SDS011;9197;50.930;3.140;2022-09-20T15:22:40;1.58;;;0.80;;
18142;SDS011;9197;50.930;3.140;2022-09-20T15:25:11;2.67;;;0.90;;
18142;SDS011;9197;50.930;3.140;2022-09-20T15:27:40;4.43;;;0.82;;
18142;SDS011;9197;50.930;3.140;2022-09-20T15:30:09;3.40;;;1.08;;
18142;SDS011;9197;50.930;3.140;2022-09-20T15:32:37;4.57;;;1.50;;
18142;SDS011;9197;50.930;3.140;2022-09-20T15:35:05;4.32;;;1.23;;
18142;SDS011;9197;50.930;3.140;2022-09-20T15:37:33;2.47;;;1.25;;
18142;SDS011;9197;50.930;3.140;2022-09-20T15:40:02;2.50;;;0.90;;
18142;SDS011;9197;50.930;3.140;2022-09-20T15:42:30;2.45;;;1.00;;
18142;SDS011;9197;50.930;3.140;2022-09-20T15:45:03;4.75;;;1.10;;
18142;SDS011;9197;50.930;3.140;2022-09-20T15:47:30;5.55;;;1.05;;
18142;SDS011;9197;50.930;3.140;2022-09-20T15:49:57;6.22;;;1.50;;
18142;SDS011;9197;50.930;3.140;2022-09-20T15:52:25;2.83;;;0.80;;
18142;SDS011;9197;50.930;3.140;2022-09-20T15:54:53;3.92;;;0.90;;
18142;SDS011;9197;50.930;3.140;2022-09-20T15:57:25;5.95;;;2.13;;
18142;SDS011;9197;50.930;3.140;2022-09-20T15:59:52;4.00;;;1.20;;
18142;SDS011;9197;50.930;3.140;2022-09-20T16:02:19;3.50;;;1.05;;
18142;SDS011;9197;50.930;3.140;2022-09-20T16:04:47;4.78;;;1.10;;
18142;SDS011;9197;50.930;3.140;2022-09-20T16:07:18;5.07;;;1.27;;
18142;SDS011;9197;50.930;3.140;2022-09-20T16:09:49;5.63;;;1.20;;
18142;SDS011;9197;50.930;3.140;2022-09-20T16:12:17;2.55;;;0.90;;